Otisville, Michigan
Current Conditions -  °F | °C
As of 11:33 AM on Saturday 22 Nov 2014 (Local Time) from KD95 Reporting Station
Overcast Overcast  
Wind Chill: 29°   Ceiling: 1000
Heat Index: 37°   Visibility: 7mi
Dew Point: 34°   Wind: 15mph
Humidity: 88%   Direction: 230°SW
Pressure: 29.99"   Gusts: 20mph
Location:  43.17°N, 83.52°W
Report Text: KD95 221633Z AUTO 23013G17KT 7SM OVC010 03/01 A2999 RMK AO2 T00300012
Loading
Personal Weather Stations






























Interactive Weather Map New forecast layout! Learn more

10-Day Weather Forecast

Advertisements
Track Severe Weather on mobile